sensor_id;sensor_type;location;lat;lon;timestamp;P1;durP1;ratioP1;P2;durP2;ratioP2
74471;SDS011;62920;53.572;10.050;2023-03-23T00:01:05;8.60;;;3.83;;
74471;SDS011;62920;53.572;10.050;2023-03-23T00:05:57;9.57;;;4.20;;
74471;SDS011;62920;53.572;10.050;2023-03-23T00:08:29;7.15;;;3.95;;
74471;SDS011;62920;53.572;10.050;2023-03-23T00:10:55;7.50;;;4.05;;
74471;SDS011;62920;53.572;10.050;2023-03-23T00:13:26;11.27;;;4.88;;
74471;SDS011;62920;53.572;10.050;2023-03-23T00:15:52;8.45;;;4.35;;
74471;SDS011;62920;53.572;10.050;2023-03-23T00:18:21;8.07;;;4.55;;
74471;SDS011;62920;53.572;10.050;2023-03-23T00:20:56;9.43;;;4.53;;
74471;SDS011;62920;53.572;10.050;2023-03-23T00:23:23;8.18;;;4.25;;
74471;SDS011;62920;53.572;10.050;2023-03-23T00:25:51;8.93;;;4.50;;
74471;SDS011;62920;53.572;10.050;2023-03-23T00:28:18;9.32;;;4.68;;
74471;SDS011;62920;53.572;10.050;2023-03-23T00:30:53;10.02;;;4.78;;
74471;SDS011;62920;53.572;10.050;2023-03-23T00:33:21;9.77;;;5.13;;
74471;SDS011;62920;53.572;10.050;2023-03-23T00:35:47;10.93;;;5.15;;
74471;SDS011;62920;53.572;10.050;2023-03-23T00:38:13;9.43;;;5.03;;
74471;SDS011;62920;53.572;10.050;2023-03-23T00:40:39;12.85;;;5.50;;
74471;SDS011;62920;53.572;10.050;2023-03-23T00:43:04;7.95;;;5.10;;
74471;SDS011;62920;53.572;10.050;2023-03-23T00:45:30;7.40;;;5.07;;
74471;SDS011;62920;53.572;10.050;2023-03-23T00:47:55;8.23;;;5.13;;
74471;SDS011;62920;53.572;10.050;2023-03-23T00:50:21;9.35;;;5.28;;
74471;SDS011;62920;53.572;10.050;2023-03-23T00:52:47;11.38;;;5.97;;
74471;SDS011;62920;53.572;10.050;2023-03-23T00:55:14;9.07;;;5.55;;
74471;SDS011;62920;53.572;10.050;2023-03-23T00:57:40;10.05;;;5.18;;
74471;SDS011;62920;53.572;10.050;2023-03-23T01:00:05;8.80;;;5.70;;
74471;SDS011;62920;53.572;10.050;2023-03-23T01:02:35;8.88;;;5.47;;
74471;SDS011;62920;53.572;10.050;2023-03-23T01:05:01;10.43;;;5.35;;
74471;SDS011;62920;53.572;10.050;2023-03-23T01:07:28;10.27;;;5.88;;
74471;SDS011;62920;53.572;10.050;2023-03-23T01:09:56;10.52;;;5.45;;
74471;SDS011;62920;53.572;10.050;2023-03-23T01:12:22;9.38;;;5.68;;
74471;SDS011;62920;53.572;10.050;2023-03-23T01:14:49;13.27;;;5.97;;
74471;SDS011;62920;53.572;10.050;2023-03-23T01:17:15;8.60;;;5.38;;
74471;SDS011;62920;53.572;10.050;2023-03-23T01:19:40;9.98;;;5.85;;
74471;SDS011;62920;53.572;10.050;2023-03-23T01:22:07;10.93;;;5.43;;
74471;SDS011;62920;53.572;10.050;2023-03-23T01:24:32;11.55;;;5.63;;
74471;SDS011;62920;53.572;10.050;2023-03-23T01:26:58;11.40;;;5.75;;
74471;SDS011;62920;53.572;10.050;2023-03-23T01:29:26;13.60;;;6.50;;
74471;SDS011;62920;53.572;10.050;2023-03-23T01:31:52;10.95;;;6.18;;
74471;SDS011;62920;53.572;10.050;2023-03-23T01:34:17;9.60;;;5.88;;
74471;SDS011;62920;53.572;10.050;2023-03-23T01:36:42;11.70;;;6.22;;
74471;SDS011;62920;53.572;10.050;2023-03-23T01:39:08;12.98;;;6.25;;
74471;SDS011;62920;53.572;10.050;2023-03-23T01:41:33;10.10;;;5.93;;
74471;SDS011;62920;53.572;10.050;2023-03-23T01:44:06;12.52;;;6.85;;
74471;SDS011;62920;53.572;10.050;2023-03-23T01:46:53;11.43;;;6.07;;
74471;SDS011;62920;53.572;10.050;2023-03-23T01:49:27;9.88;;;6.35;;
74471;SDS011;62920;53.572;10.050;2023-03-23T01:52:04;11.32;;;6.65;;
74471;SDS011;62920;53.572;10.050;2023-03-23T01:54:33;12.10;;;6.72;;
74471;SDS011;62920;53.572;10.050;2023-03-23T01:59:26;14.35;;;6.55;;
74471;SDS011;62920;53.572;10.050;2023-03-23T02:01:53;9.85;;;6.40;;
74471;SDS011;62920;53.572;10.050;2023-03-23T02:04:19;16.02;;;6.80;;
74471;SDS011;62920;53.572;10.050;2023-03-23T02:06:45;11.63;;;6.15;;
74471;SDS011;62920;53.572;10.050;2023-03-23T02:09:11;13.32;;;6.97;;
74471;SDS011;62920;53.572;10.050;2023-03-23T02:11:38;10.73;;;6.57;;
74471;SDS011;62920;53.572;10.050;2023-03-23T02:14:04;10.48;;;6.25;;
74471;SDS011;62920;53.572;10.050;2023-03-23T02:16:41;12.07;;;6.35;;
74471;SDS011;62920;53.572;10.050;2023-03-23T02:22:14;9.82;;;5.78;;
74471;SDS011;62920;53.572;10.050;2023-03-23T02:25:25;11.98;;;6.03;;
74471;SDS011;62920;53.572;10.050;2023-03-23T02:33:38;10.90;;;5.68;;
74471;SDS011;62920;53.572;10.050;2023-03-23T02:41:22;10.95;;;5.28;;
74471;SDS011;62920;53.572;10.050;2023-03-23T02:43:51;7.63;;;4.82;;
74471;SDS011;62920;53.572;10.050;2023-03-23T02:46:17;10.23;;;5.57;;
74471;SDS011;62920;53.572;10.050;2023-03-23T02:48:42;8.23;;;5.00;;
74471;SDS011;62920;53.572;10.050;2023-03-23T02:51:10;9.80;;;5.65;;
74471;SDS011;62920;53.572;10.050;2023-03-23T02:53:36;9.02;;;4.85;;
74471;SDS011;62920;53.572;10.050;2023-03-23T02:56:04;7.78;;;4.78;;
74471;SDS011;62920;53.572;10.050;2023-03-23T02:58:31;6.55;;;4.45;;
74471;SDS011;62920;53.572;10.050;2023-03-23T03:03:25;7.22;;;4.38;;
74471;SDS011;62920;53.572;10.050;2023-03-23T03:08:37;7.05;;;4.38;;
74471;SDS011;62920;53.572;10.050;2023-03-23T03:11:39;9.00;;;4.70;;
74471;SDS011;62920;53.572;10.050;2023-03-23T03:14:10;6.55;;;4.47;;
74471;SDS011;62920;53.572;10.050;2023-03-23T03:19:35;9.02;;;4.85;;
74471;SDS011;62920;53.572;10.050;2023-03-23T03:22:03;7.90;;;4.93;;
74471;SDS011;62920;53.572;10.050;2023-03-23T03:24:29;9.68;;;5.40;;
74471;SDS011;62920;53.572;10.050;2023-03-23T03:26:56;9.68;;;4.82;;
74471;SDS011;62920;53.572;10.050;2023-03-23T03:29:28;10.20;;;5.53;;
74471;SDS011;62920;53.572;10.050;2023-03-23T03:31:55;8.32;;;4.97;;
74471;SDS011;62920;53.572;10.050;2023-03-23T03:34:22;8.88;;;4.95;;
74471;SDS011;62920;53.572;10.050;2023-03-23T03:36:49;9.63;;;5.55;;
74471;SDS011;62920;53.572;10.050;2023-03-23T03:39:16;7.63;;;4.93;;
74471;SDS011;62920;53.572;10.050;2023-03-23T03:41:44;9.02;;;5.55;;
74471;SDS011;62920;53.572;10.050;2023-03-23T03:44:10;9.90;;;5.70;;
74471;SDS011;62920;53.572;10.050;2023-03-23T03:46:36;8.32;;;5.35;;
74471;SDS011;62920;53.572;10.050;2023-03-23T03:49:02;8.68;;;5.30;;
74471;SDS011;62920;53.572;10.050;2023-03-23T03:51:29;8.52;;;5.45;;
74471;SDS011;62920;53.572;10.050;2023-03-23T03:53:55;8.95;;;5.28;;
74471;SDS011;62920;53.572;10.050;2023-03-23T03:56:21;9.27;;;5.00;;
74471;SDS011;62920;53.572;10.050;2023-03-23T03:58:47;10.35;;;5.57;;
74471;SDS011;62920;53.572;10.050;2023-03-23T04:01:14;9.65;;;5.22;;
74471;SDS011;62920;53.572;10.050;2023-03-23T04:03:41;9.80;;;5.95;;
74471;SDS011;62920;53.572;10.050;2023-03-23T04:06:07;10.80;;;5.55;;
74471;SDS011;62920;53.572;10.050;2023-03-23T04:08:34;11.73;;;5.47;;
74471;SDS011;62920;53.572;10.050;2023-03-23T04:11:00;8.40;;;5.03;;
74471;SDS011;62920;53.572;10.050;2023-03-23T04:13:26;12.32;;;5.47;;
74471;SDS011;62920;53.572;10.050;2023-03-23T04:15:51;9.52;;;5.38;;
74471;SDS011;62920;53.572;10.050;2023-03-23T04:18:17;11.25;;;5.10;;
74471;SDS011;62920;53.572;10.050;2023-03-23T04:20:43;10.23;;;5.90;;
74471;SDS011;62920;53.572;10.050;2023-03-23T04:23:12;11.40;;;5.70;;
74471;SDS011;62920;53.572;10.050;2023-03-23T04:25:38;10.02;;;5.70;;
74471;SDS011;62920;53.572;10.050;2023-03-23T04:28:05;10.45;;;5.25;;
74471;SDS011;62920;53.572;10.050;2023-03-23T04:30:32;11.32;;;5.60;;
74471;SDS011;62920;53.572;10.050;2023-03-23T04:32:57;7.60;;;5.25;;
74471;SDS011;62920;53.572;10.050;2023-03-23T04:35:25;11.02;;;5.72;;
74471;SDS011;62920;53.572;10.050;2023-03-23T04:37:51;8.85;;;5.22;;
74471;SDS011;62920;53.572;10.050;2023-03-23T04:40:17;9.85;;;5.60;;
74471;SDS011;62920;53.572;10.050;2023-03-23T04:42:42;8.65;;;5.03;;
74471;SDS011;62920;53.572;10.050;2023-03-23T04:45:11;7.90;;;5.25;;
74471;SDS011;62920;53.572;10.050;2023-03-23T04:47:38;9.85;;;5.45;;
74471;SDS011;62920;53.572;10.050;2023-03-23T04:50:11;8.95;;;5.32;;
74471;SDS011;62920;53.572;10.050;2023-03-23T04:52:38;10.35;;;5.60;;
74471;SDS011;62920;53.572;10.050;2023-03-23T04:55:05;8.10;;;5.53;;
74471;SDS011;62920;53.572;10.050;2023-03-23T04:57:32;8.35;;;5.65;;
74471;SDS011;62920;53.572;10.050;2023-03-23T04:59:58;8.60;;;5.32;;
74471;SDS011;62920;53.572;10.050;2023-03-23T05:02:23;9.20;;;5.30;;
74471;SDS011;62920;53.572;10.050;2023-03-23T05:04:50;8.35;;;5.63;;
74471;SDS011;62920;53.572;10.050;2023-03-23T05:07:16;8.95;;;4.93;;
74471;SDS011;62920;53.572;10.050;2023-03-23T05:09:41;10.18;;;5.88;;
74471;SDS011;62920;53.572;10.050;2023-03-23T05:12:08;9.73;;;5.72;;
74471;SDS011;62920;53.572;10.050;2023-03-23T05:14:34;8.45;;;5.43;;
74471;SDS011;62920;53.572;10.050;2023-03-23T05:17:00;12.93;;;6.22;;
74471;SDS011;62920;53.572;10.050;2023-03-23T05:19:25;8.88;;;5.32;;
74471;SDS011;62920;53.572;10.050;2023-03-23T05:21:52;9.88;;;5.90;;
74471;SDS011;62920;53.572;10.050;2023-03-23T05:24:19;10.02;;;5.68;;
74471;SDS011;62920;53.572;10.050;2023-03-23T05:26:44;10.02;;;5.88;;
74471;SDS011;62920;53.572;10.050;2023-03-23T05:29:13;7.97;;;5.45;;
74471;SDS011;62920;53.572;10.050;2023-03-23T05:31:38;9.50;;;5.50;;
74471;SDS011;62920;53.572;10.050;2023-03-23T05:34:04;8.68;;;5.20;;
74471;SDS011;62920;53.572;10.050;2023-03-23T05:36:30;9.88;;;5.15;;
74471;SDS011;62920;53.572;10.050;2023-03-23T05:38:55;10.13;;;4.95;;
74471;SDS011;62920;53.572;10.050;2023-03-23T05:41:21;10.57;;;5.03;;
74471;SDS011;62920;53.572;10.050;2023-03-23T05:43:48;10.48;;;4.85;;
74471;SDS011;62920;53.572;10.050;2023-03-23T05:46:13;9.05;;;4.60;;
74471;SDS011;62920;53.572;10.050;2023-03-23T05:48:39;7.03;;;4.40;;
74471;SDS011;62920;53.572;10.050;2023-03-23T05:51:05;9.18;;;4.38;;
74471;SDS011;62920;53.572;10.050;2023-03-23T05:53:30;8.05;;;4.38;;
74471;SDS011;62920;53.572;10.050;2023-03-23T05:55:59;7.63;;;4.50;;
74471;SDS011;62920;53.572;10.050;2023-03-23T05:58:25;7.13;;;4.13;;
74471;SDS011;62920;53.572;10.050;2023-03-23T06:00:51;7.43;;;4.22;;
74471;SDS011;62920;53.572;10.050;2023-03-23T06:03:16;9.98;;;4.88;;
74471;SDS011;62920;53.572;10.050;2023-03-23T06:05:45;7.35;;;3.65;;
74471;SDS011;62920;53.572;10.050;2023-03-23T06:08:10;6.93;;;3.47;;
74471;SDS011;62920;53.572;10.050;2023-03-23T06:10:36;7.03;;;3.85;;
74471;SDS011;62920;53.572;10.050;2023-03-23T06:13:02;7.20;;;3.78;;
74471;SDS011;62920;53.572;10.050;2023-03-23T06:15:28;7.95;;;3.55;;
74471;SDS011;62920;53.572;10.050;2023-03-23T06:17:58;7.43;;;3.55;;
74471;SDS011;62920;53.572;10.050;2023-03-23T06:20:23;10.73;;;4.43;;
74471;SDS011;62920;53.572;10.050;2023-03-23T06:22:49;8.38;;;3.65;;
74471;SDS011;62920;53.572;10.050;2023-03-23T06:25:16;9.20;;;3.78;;
74471;SDS011;62920;53.572;10.050;2023-03-23T06:27:41;9.02;;;3.72;;
74471;SDS011;62920;53.572;10.050;2023-03-23T06:30:06;7.13;;;3.90;;
74471;SDS011;62920;53.572;10.050;2023-03-23T06:32:32;7.50;;;3.72;;
74471;SDS011;62920;53.572;10.050;2023-03-23T06:34:58;8.57;;;3.30;;
74471;SDS011;62920;53.572;10.050;2023-03-23T06:37:24;8.10;;;3.55;;
74471;SDS011;62920;53.572;10.050;2023-03-23T06:39:50;8.13;;;3.40;;
74471;SDS011;62920;53.572;10.050;2023-03-23T06:42:16;7.93;;;3.25;;
74471;SDS011;62920;53.572;10.050;2023-03-23T06:44:43;9.68;;;3.22;;
74471;SDS011;62920;53.572;10.050;2023-03-23T06:47:08;6.38;;;2.92;;
74471;SDS011;62920;53.572;10.050;2023-03-23T06:49:34;6.18;;;2.72;;
74471;SDS011;62920;53.572;10.050;2023-03-23T06:51:59;6.25;;;3.10;;
74471;SDS011;62920;53.572;10.050;2023-03-23T06:54:26;7.03;;;2.70;;
74471;SDS011;62920;53.572;10.050;2023-03-23T06:56:52;5.57;;;2.97;;
74471;SDS011;62920;53.572;10.050;2023-03-23T06:59:17;5.47;;;3.20;;
74471;SDS011;62920;53.572;10.050;2023-03-23T07:01:43;6.40;;;3.17;;
74471;SDS011;62920;53.572;10.050;2023-03-23T07:04:08;6.82;;;3.67;;
74471;SDS011;62920;53.572;10.050;2023-03-23T07:06:33;5.72;;;2.53;;
74471;SDS011;62920;53.572;10.050;2023-03-23T07:08:59;4.93;;;2.67;;
74471;SDS011;62920;53.572;10.050;2023-03-23T07:11:24;6.05;;;3.10;;
74471;SDS011;62920;53.572;10.050;2023-03-23T07:13:50;6.15;;;2.65;;
74471;SDS011;62920;53.572;10.050;2023-03-23T07:18:43;6.55;;;2.55;;
74471;SDS011;62920;53.572;10.050;2023-03-23T07:21:09;5.00;;;2.45;;
74471;SDS011;62920;53.572;10.050;2023-03-23T07:23:35;6.72;;;2.75;;
74471;SDS011;62920;53.572;10.050;2023-03-23T07:26:01;6.50;;;2.40;;
74471;SDS011;62920;53.572;10.050;2023-03-23T07:28:26;6.50;;;2.42;;
74471;SDS011;62920;53.572;10.050;2023-03-23T07:30:51;4.78;;;2.67;;
74471;SDS011;62920;53.572;10.050;2023-03-23T07:33:17;4.20;;;2.30;;
74471;SDS011;62920;53.572;10.050;2023-03-23T07:35:43;6.68;;;2.30;;
74471;SDS011;62920;53.572;10.050;2023-03-23T07:38:08;4.70;;;2.45;;
74471;SDS011;62920;53.572;10.050;2023-03-23T07:40:34;4.28;;;2.30;;
74471;SDS011;62920;53.572;10.050;2023-03-23T07:42:59;9.23;;;2.78;;
74471;SDS011;62920;53.572;10.050;2023-03-23T07:45:26;4.78;;;2.10;;
74471;SDS011;62920;53.572;10.050;2023-03-23T07:47:52;3.55;;;2.20;;
74471;SDS011;62920;53.572;10.050;2023-03-23T07:50:18;4.25;;;2.13;;
74471;SDS011;62920;53.572;10.050;2023-03-23T07:52:47;5.47;;;2.70;;
74471;SDS011;62920;53.572;10.050;2023-03-23T07:55:12;5.40;;;2.60;;
74471;SDS011;62920;53.572;10.050;2023-03-23T07:57:49;4.90;;;2.60;;
74471;SDS011;62920;53.572;10.050;2023-03-23T08:00:16;4.60;;;2.70;;
74471;SDS011;62920;53.572;10.050;2023-03-23T08:02:50;6.25;;;2.72;;
74471;SDS011;62920;53.572;10.050;2023-03-23T08:05:17;4.65;;;2.53;;
74471;SDS011;62920;53.572;10.050;2023-03-23T08:07:43;5.35;;;2.88;;
74471;SDS011;62920;53.572;10.050;2023-03-23T08:10:10;5.47;;;3.10;;
74471;SDS011;62920;53.572;10.050;2023-03-23T08:12:37;6.13;;;2.63;;
74471;SDS011;62920;53.572;10.050;2023-03-23T08:15:06;4.78;;;2.70;;
74471;SDS011;62920;53.572;10.050;2023-03-23T08:17:33;5.13;;;2.80;;
74471;SDS011;62920;53.572;10.050;2023-03-23T08:19:59;7.97;;;2.85;;
74471;SDS011;62920;53.572;10.050;2023-03-23T08:22:25;5.65;;;2.80;;
74471;SDS011;62920;53.572;10.050;2023-03-23T08:24:51;5.70;;;2.95;;
74471;SDS011;62920;53.572;10.050;2023-03-23T08:27:17;7.18;;;2.83;;
74471;SDS011;62920;53.572;10.050;2023-03-23T08:29:46;4.43;;;2.67;;
74471;SDS011;62920;53.572;10.050;2023-03-23T08:32:12;5.07;;;2.90;;
74471;SDS011;62920;53.572;10.050;2023-03-23T08:34:37;6.32;;;3.42;;
74471;SDS011;62920;53.572;10.050;2023-03-23T08:37:03;6.13;;;2.95;;
74471;SDS011;62920;53.572;10.050;2023-03-23T08:39:29;6.65;;;3.00;;
74471;SDS011;62920;53.572;10.050;2023-03-23T08:41:56;5.35;;;2.50;;
74471;SDS011;62920;53.572;10.050;2023-03-23T08:44:21;5.75;;;2.13;;
74471;SDS011;62920;53.572;10.050;2023-03-23T08:46:47;2.85;;;1.50;;
74471;SDS011;62920;53.572;10.050;2023-03-23T08:49:12;5.22;;;1.48;;
74471;SDS011;62920;53.572;10.050;2023-03-23T08:51:38;3.75;;;1.27;;
74471;SDS011;62920;53.572;10.050;2023-03-23T08:54:05;4.07;;;1.50;;
74471;SDS011;62920;53.572;10.050;2023-03-23T08:56:30;2.53;;;1.15;;
74471;SDS011;62920;53.572;10.050;2023-03-23T08:58:56;3.00;;;1.30;;
74471;SDS011;62920;53.572;10.050;2023-03-23T09:01:21;3.25;;;1.65;;
74471;SDS011;62920;53.572;10.050;2023-03-23T09:03:47;3.58;;;1.55;;
74471;SDS011;62920;53.572;10.050;2023-03-23T09:06:13;5.00;;;1.90;;
74471;SDS011;62920;53.572;10.050;2023-03-23T09:08:39;6.20;;;2.08;;
74471;SDS011;62920;53.572;10.050;2023-03-23T09:11:06;7.63;;;1.80;;
74471;SDS011;62920;53.572;10.050;2023-03-23T09:13:37;10.10;;;2.10;;
74471;SDS011;62920;53.572;10.050;2023-03-23T09:16:03;6.60;;;1.75;;
74471;SDS011;62920;53.572;10.050;2023-03-23T09:18:30;6.43;;;1.77;;
74471;SDS011;62920;53.572;10.050;2023-03-23T09:20:57;4.88;;;1.90;;
74471;SDS011;62920;53.572;10.050;2023-03-23T09:23:23;4.13;;;1.63;;
74471;SDS011;62920;53.572;10.050;2023-03-23T09:25:50;9.18;;;1.45;;
74471;SDS011;62920;53.572;10.050;2023-03-23T09:28:16;5.55;;;1.48;;
74471;SDS011;62920;53.572;10.050;2023-03-23T09:30:42;10.93;;;1.80;;
74471;SDS011;62920;53.572;10.050;2023-03-23T09:33:09;5.63;;;1.27;;
74471;SDS011;62920;53.572;10.050;2023-03-23T09:35:35;8.73;;;1.67;;
74471;SDS011;62920;53.572;10.050;2023-03-23T09:38:03;8.93;;;1.50;;
74471;SDS011;62920;53.572;10.050;2023-03-23T09:43:40;5.88;;;1.10;;
74471;SDS011;62920;53.572;10.050;2023-03-23T09:49:23;8.43;;;1.45;;
74471;SDS011;62920;53.572;10.050;2023-03-23T09:51:59;5.38;;;1.80;;
74471;SDS011;62920;53.572;10.050;2023-03-23T09:54:36;9.15;;;1.88;;
74471;SDS011;62920;53.572;10.050;2023-03-23T09:57:04;6.38;;;1.15;;
74471;SDS011;62920;53.572;10.050;2023-03-23T09:59:52;11.07;;;1.50;;
74471;SDS011;62920;53.572;10.050;2023-03-23T10:02:46;9.18;;;1.40;;
74471;SDS011;62920;53.572;10.050;2023-03-23T10:05:30;10.35;;;1.55;;
74471;SDS011;62920;53.572;10.050;2023-03-23T10:07:57;6.60;;;1.20;;
74471;SDS011;62920;53.572;10.050;2023-03-23T10:10:26;6.85;;;1.38;;
74471;SDS011;62920;53.572;10.050;2023-03-23T10:15:49;5.97;;;1.10;;
74471;SDS011;62920;53.572;10.050;2023-03-23T10:18:37;9.35;;;1.70;;
74471;SDS011;62920;53.572;10.050;2023-03-23T10:21:12;7.68;;;1.70;;
74471;SDS011;62920;53.572;10.050;2023-03-23T10:23:41;12.40;;;1.73;;
74471;SDS011;62920;53.572;10.050;2023-03-23T10:28:52;7.10;;;1.52;;
74471;SDS011;62920;53.572;10.050;2023-03-23T10:31:35;6.28;;;1.48;;
74471;SDS011;62920;53.572;10.050;2023-03-23T10:34:04;7.55;;;1.55;;
74471;SDS011;62920;53.572;10.050;2023-03-23T10:36:36;8.43;;;1.30;;
74471;SDS011;62920;53.572;10.050;2023-03-23T10:39:06;7.57;;;1.23;;
74471;SDS011;62920;53.572;10.050;2023-03-23T10:41:36;7.70;;;1.33;;
74471;SDS011;62920;53.572;10.050;2023-03-23T10:44:07;6.38;;;1.50;;
74471;SDS011;62920;53.572;10.050;2023-03-23T10:51:41;6.70;;;1.23;;
74471;SDS011;62920;53.572;10.050;2023-03-23T10:54:08;9.40;;;1.70;;
74471;SDS011;62920;53.572;10.050;2023-03-23T10:56:35;9.10;;;1.50;;
74471;SDS011;62920;53.572;10.050;2023-03-23T11:01:38;9.80;;;1.58;;
74471;SDS011;62920;53.572;10.050;2023-03-23T11:04:10;6.07;;;1.40;;
74471;SDS011;62920;53.572;10.050;2023-03-23T11:06:37;8.40;;;1.10;;
74471;SDS011;62920;53.572;10.050;2023-03-23T11:09:17;8.48;;;1.50;;
74471;SDS011;62920;53.572;10.050;2023-03-23T11:11:48;5.00;;;1.25;;
74471;SDS011;62920;53.572;10.050;2023-03-23T11:14:16;8.27;;;1.80;;
74471;SDS011;62920;53.572;10.050;2023-03-23T11:16:51;10.27;;;1.88;;
74471;SDS011;62920;53.572;10.050;2023-03-23T11:19:26;8.90;;;1.50;;
74471;SDS011;62920;53.572;10.050;2023-03-23T11:21:54;8.52;;;1.67;;
74471;SDS011;62920;53.572;10.050;2023-03-23T11:24:27;9.07;;;1.90;;
74471;SDS011;62920;53.572;10.050;2023-03-23T11:26:53;8.68;;;1.63;;
74471;SDS011;62920;53.572;10.050;2023-03-23T11:29:22;6.50;;;1.30;;
74471;SDS011;62920;53.572;10.050;2023-03-23T11:31:53;10.75;;;2.15;;
74471;SDS011;62920;53.572;10.050;2023-03-23T11:37:00;7.45;;;1.30;;
74471;SDS011;62920;53.572;10.050;2023-03-23T11:39:32;9.05;;;1.70;;
74471;SDS011;62920;53.572;10.050;2023-03-23T11:41:59;9.63;;;2.00;;
74471;SDS011;62920;53.572;10.050;2023-03-23T11:44:33;8.40;;;1.50;;
74471;SDS011;62920;53.572;10.050;2023-03-23T11:47:09;7.93;;;1.60;;
74471;SDS011;62920;53.572;10.050;2023-03-23T11:49:45;8.15;;;1.70;;
74471;SDS011;62920;53.572;10.050;2023-03-23T11:52:24;14.45;;;2.20;;
74471;SDS011;62920;53.572;10.050;2023-03-23T11:54:58;6.78;;;1.42;;
74471;SDS011;62920;53.572;10.050;2023-03-23T11:57:30;9.43;;;2.25;;
74471;SDS011;62920;53.572;10.050;2023-03-23T11:59:55;8.43;;;1.45;;
74471;SDS011;62920;53.572;10.050;2023-03-23T12:05:48;10.13;;;2.20;;
74471;SDS011;62920;53.572;10.050;2023-03-23T12:08:23;8.82;;;2.45;;
74471;SDS011;62920;53.572;10.050;2023-03-23T12:11:03;11.55;;;2.35;;
74471;SDS011;62920;53.572;10.050;2023-03-23T12:13:39;10.80;;;2.42;;
74471;SDS011;62920;53.572;10.050;2023-03-23T12:26:56;10.57;;;2.40;;
74471;SDS011;62920;53.572;10.050;2023-03-23T12:37:24;4.55;;;2.03;;
74471;SDS011;62920;53.572;10.050;2023-03-23T12:43:08;8.15;;;2.28;;
74471;SDS011;62920;53.572;10.050;2023-03-23T12:45:41;11.60;;;2.20;;
74471;SDS011;62920;53.572;10.050;2023-03-23T12:48:14;8.20;;;2.30;;
74471;SDS011;62920;53.572;10.050;2023-03-23T12:50:43;9.60;;;2.35;;
74471;SDS011;62920;53.572;10.050;2023-03-23T12:53:16;6.88;;;2.03;;
74471;SDS011;62920;53.572;10.050;2023-03-23T12:55:47;8.30;;;2.13;;
74471;SDS011;62920;53.572;10.050;2023-03-23T12:58:21;16.55;;;2.55;;
74471;SDS011;62920;53.572;10.050;2023-03-23T13:00:56;9.60;;;2.45;;
74471;SDS011;62920;53.572;10.050;2023-03-23T13:06:38;13.13;;;2.28;;
74471;SDS011;62920;53.572;10.050;2023-03-23T13:11:46;10.75;;;1.75;;
74471;SDS011;62920;53.572;10.050;2023-03-23T13:22:31;8.82;;;1.70;;
74471;SDS011;62920;53.572;10.050;2023-03-23T13:25:03;25.83;;;3.25;;
74471;SDS011;62920;53.572;10.050;2023-03-23T13:27:34;8.25;;;1.80;;
74471;SDS011;62920;53.572;10.050;2023-03-23T13:30:00;6.47;;;1.80;;
74471;SDS011;62920;53.572;10.050;2023-03-23T13:32:31;6.50;;;1.73;;
74471;SDS011;62920;53.572;10.050;2023-03-23T13:34:56;10.73;;;2.03;;
74471;SDS011;62920;53.572;10.050;2023-03-23T13:37:26;11.25;;;1.80;;
74471;SDS011;62920;53.572;10.050;2023-03-23T13:39:56;8.32;;;2.17;;
74471;SDS011;62920;53.572;10.050;2023-03-23T13:42:27;7.25;;;1.73;;
74471;SDS011;62920;53.572;10.050;2023-03-23T13:45:18;6.30;;;1.45;;
74471;SDS011;62920;53.572;10.050;2023-03-23T13:47:44;6.18;;;1.73;;
74471;SDS011;62920;53.572;10.050;2023-03-23T13:50:24;8.25;;;2.20;;
74471;SDS011;62920;53.572;10.050;2023-03-23T13:55:20;5.85;;;1.85;;
74471;SDS011;62920;53.572;10.050;2023-03-23T13:57:55;6.22;;;1.55;;
74471;SDS011;62920;53.572;10.050;2023-03-23T14:16:15;3.97;;;0.88;;
74471;SDS011;62920;53.572;10.050;2023-03-23T14:18:54;6.07;;;0.82;;
74471;SDS011;62920;53.572;10.050;2023-03-23T14:21:38;4.63;;;1.10;;
74471;SDS011;62920;53.572;10.050;2023-03-23T14:24:09;4.00;;;0.95;;
74471;SDS011;62920;53.572;10.050;2023-03-23T14:26:36;3.45;;;1.00;;
74471;SDS011;62920;53.572;10.050;2023-03-23T14:29:03;4.32;;;0.80;;
74471;SDS011;62920;53.572;10.050;2023-03-23T14:31:29;4.97;;;0.90;;
74471;SDS011;62920;53.572;10.050;2023-03-23T14:33:55;2.58;;;0.73;;
74471;SDS011;62920;53.572;10.050;2023-03-23T14:36:22;4.47;;;0.80;;
74471;SDS011;62920;53.572;10.050;2023-03-23T14:38:54;3.08;;;0.70;;
74471;SDS011;62920;53.572;10.050;2023-03-23T14:41:22;5.75;;;1.10;;
74471;SDS011;62920;53.572;10.050;2023-03-23T14:43:47;3.95;;;0.98;;
74471;SDS011;62920;53.572;10.050;2023-03-23T14:46:13;4.22;;;0.80;;
74471;SDS011;62920;53.572;10.050;2023-03-23T14:48:39;4.40;;;1.15;;
74471;SDS011;62920;53.572;10.050;2023-03-23T14:51:05;4.45;;;0.85;;
74471;SDS011;62920;53.572;10.050;2023-03-23T14:53:36;6.72;;;1.10;;
74471;SDS011;62920;53.572;10.050;2023-03-23T14:56:09;5.78;;;1.13;;
74471;SDS011;62920;53.572;10.050;2023-03-23T14:58:37;6.78;;;1.17;;
74471;SDS011;62920;53.572;10.050;2023-03-23T15:03:31;4.85;;;1.00;;
74471;SDS011;62920;53.572;10.050;2023-03-23T15:06:01;2.63;;;0.80;;
74471;SDS011;62920;53.572;10.050;2023-03-23T15:08:31;3.72;;;0.90;;
74471;SDS011;62920;53.572;10.050;2023-03-23T15:11:10;7.45;;;1.27;;
74471;SDS011;62920;53.572;10.050;2023-03-23T15:13:44;6.13;;;1.17;;
74471;SDS011;62920;53.572;10.050;2023-03-23T15:16:28;5.40;;;1.23;;
74471;SDS011;62920;53.572;10.050;2023-03-23T15:19:04;9.00;;;1.33;;
74471;SDS011;62920;53.572;10.050;2023-03-23T15:21:31;6.70;;;1.10;;
74471;SDS011;62920;53.572;10.050;2023-03-23T15:24:03;6.18;;;1.30;;
74471;SDS011;62920;53.572;10.050;2023-03-23T15:26:46;5.78;;;1.40;;
74471;SDS011;62920;53.572;10.050;2023-03-23T15:29:19;6.00;;;1.55;;
74471;SDS011;62920;53.572;10.050;2023-03-23T15:31:51;7.25;;;1.60;;
74471;SDS011;62920;53.572;10.050;2023-03-23T15:34:31;5.35;;;1.08;;
74471;SDS011;62920;53.572;10.050;2023-03-23T15:37:04;4.72;;;1.65;;
74471;SDS011;62920;53.572;10.050;2023-03-23T15:39:32;6.70;;;1.55;;
74471;SDS011;62920;53.572;10.050;2023-03-23T15:41:58;5.38;;;1.35;;
74471;SDS011;62920;53.572;10.050;2023-03-23T15:52:06;5.57;;;1.33;;
74471;SDS011;62920;53.572;10.050;2023-03-23T15:54:33;5.45;;;1.30;;
74471;SDS011;62920;53.572;10.050;2023-03-23T15:56:59;5.28;;;1.23;;
74471;SDS011;62920;53.572;10.050;2023-03-23T15:59:24;4.18;;;0.95;;
74471;SDS011;62920;53.572;10.050;2023-03-23T16:01:49;7.47;;;1.10;;
74471;SDS011;62920;53.572;10.050;2023-03-23T16:04:16;5.43;;;1.13;;
74471;SDS011;62920;53.572;10.050;2023-03-23T16:06:43;6.35;;;1.02;;
74471;SDS011;62920;53.572;10.050;2023-03-23T16:09:13;2.95;;;0.85;;
74471;SDS011;62920;53.572;10.050;2023-03-23T16:11:40;3.50;;;0.90;;
74471;SDS011;62920;53.572;10.050;2023-03-23T16:14:06;5.75;;;1.33;;
74471;SDS011;62920;53.572;10.050;2023-03-23T16:16:33;5.30;;;1.00;;
74471;SDS011;62920;53.572;10.050;2023-03-23T16:19:01;5.60;;;1.40;;
74471;SDS011;62920;53.572;10.050;2023-03-23T16:21:27;7.38;;;1.30;;
74471;SDS011;62920;53.572;10.050;2023-03-23T16:23:52;4.63;;;1.02;;
74471;SDS011;62920;53.572;10.050;2023-03-23T16:26:18;7.32;;;1.20;;
74471;SDS011;62920;53.572;10.050;2023-03-23T16:28:43;5.32;;;1.40;;
74471;SDS011;62920;53.572;10.050;2023-03-23T16:31:09;6.70;;;1.10;;
74471;SDS011;62920;53.572;10.050;2023-03-23T16:33:35;7.43;;;1.35;;
74471;SDS011;62920;53.572;10.050;2023-03-23T16:36:00;5.68;;;1.42;;
74471;SDS011;62920;53.572;10.050;2023-03-23T16:38:25;4.53;;;1.25;;